Terminal Aerodrome Forecast
Issued by NWS

Home | Current Version | Previous Version | Text Only | Print | Product List | Glossary On
Versions: 1 2 3 4 5 6 7 8 9 10 11 12 13 14 15 16 17 18 19 20 21
000
FTUS42 KTBW 082322
TAFPGD
TAF
KPGD 082322Z 0900/0924 01009KT P6SM VCSH BKN090 OVC150
     FM090700 02012KT P6SM VCSH SCT050 OVC080
     FM091500 03013KT P6SM VCSH SCT050 BKN090 OVC150
     FM092000 03013KT P6SM SCT080 BKN100 BKN250=

USA.gov is the U.S. government's official web portal to all federal, state and local government web resources and services.